Time;durP1;ratioP1;P1;durP2;ratioP2;P2;SDS_P1;SDS_P2;PMS_P1;PMS_P2;Temp;Humidity;BMP_temperature;BMP_pressure;BME280_temperature;BME280_humidity;BME280_pressure;Samples;Min_cycle;Max_cycle;Signal;HPM_P1;HPM_P2
2023/02/22 00:02:23;;;;;;;27.60;15.40;;;9.80;99.90;;;;;;5012098;28;20408;-75
2023/02/22 00:04:53;;;;;;;25.23;14.90;;;9.80;99.90;;;;;;4958555;28;21006;-75
2023/02/22 00:07:22;;;;;;;29.93;15.47;;;9.80;99.90;;;;;;4992569;28;20427;-76
2023/02/22 00:09:48;;;;;;;23.63;14.17;;;9.70;99.90;;;;;;4994036;28;20488;-75
2023/02/22 00:12:16;;;;;;;25.43;14.20;;;9.70;99.90;;;;;;5010671;28;20411;-74
2023/02/22 00:14:44;;;;;;;27.47;14.50;;;9.70;99.90;;;;;;4993681;28;20504;-75
2023/02/22 00:17:12;;;;;;;24.33;14.83;;;9.70;99.90;;;;;;4977955;28;20511;-75
2023/02/22 00:19:38;;;;;;;22.37;13.50;;;9.70;99.90;;;;;;5011861;28;20791;-75
2023/02/22 00:22:04;;;;;;;28.63;15.30;;;9.70;99.90;;;;;;4993800;28;20424;-75
2023/02/22 00:24:34;;;;;;;26.33;13.97;;;9.70;99.90;;;;;;5010683;28;20412;-75
2023/02/22 00:27:02;;;;;;;27.33;14.93;;;9.70;99.90;;;;;;5011239;28;20212;-75
2023/02/22 00:29:28;;;;;;;27.97;15.83;;;9.70;99.90;;;;;;5011585;28;20458;-75
2023/02/22 00:31:54;;;;;;;30.63;13.80;;;9.70;99.90;;;;;;5009795;28;20519;-75
2023/02/22 00:34:25;;;;;;;28.80;15.67;;;9.70;99.90;;;;;;5011657;28;20511;-75
2023/02/22 00:36:53;;;;;;;26.37;14.07;;;9.70;99.90;;;;;;4993770;28;20974;-75
2023/02/22 00:39:21;;;;;;;24.40;15.30;;;9.70;99.90;;;;;;5012706;28;20403;-74
2023/02/22 00:41:49;;;;;;;26.33;14.30;;;9.70;99.90;;;;;;4981088;28;21016;-75
2023/02/22 00:44:15;;;;;;;24.73;14.67;;;9.70;99.90;;;;;;4981316;28;20432;-75
2023/02/22 00:46:42;;;;;;;27.47;15.17;;;9.70;99.90;;;;;;5013150;28;20435;-75
2023/02/22 00:49:10;;;;;;;22.83;14.30;;;9.70;99.90;;;;;;4997697;28;20903;-75
2023/02/22 00:51:38;;;;;;;26.33;14.73;;;9.70;99.90;;;;;;4997489;28;20921;-75
2023/02/22 00:54:06;;;;;;;26.40;15.63;;;9.60;99.90;;;;;;4997162;28;20464;-75
2023/02/22 00:56:33;;;;;;;27.33;14.60;;;9.60;99.90;;;;;;4981007;28;20776;-75
2023/02/22 00:59:02;;;;;;;27.80;14.47;;;9.60;99.90;;;;;;5014158;28;20432;-75
2023/02/22 01:01:31;;;;;;;29.87;15.23;;;9.60;99.90;;;;;;4965188;28;20439;-75
2023/02/22 01:03:57;;;;;;;28.27;14.23;;;9.60;99.90;;;;;;4980383;28;20452;-75
2023/02/22 01:06:23;;;;;;;25.40;12.90;;;9.60;99.90;;;;;;4981096;28;20491;-75
2023/02/22 01:08:50;;;;;;;27.80;14.93;;;9.60;99.90;;;;;;4996293;28;20503;-75
2023/02/22 01:11:17;;;;;;;29.50;15.70;;;9.60;99.90;;;;;;5013589;28;20479;-75
2023/02/22 01:13:45;;;;;;;26.23;15.40;;;9.60;99.90;;;;;;4996005;28;20457;-75
2023/02/22 01:16:12;;;;;;;30.43;15.20;;;9.60;99.90;;;;;;5012925;28;20838;-76
2023/02/22 01:18:38;;;;;;;27.83;14.63;;;9.60;99.90;;;;;;4996621;28;20926;-76
2023/02/22 01:21:07;;;;;;;26.90;15.07;;;9.60;99.90;;;;;;4979680;28;20551;-76
2023/02/22 01:23:38;;;;;;;24.80;15.60;;;9.60;99.90;;;;;;4996525;28;20405;-76
2023/02/22 01:26:04;;;;;;;24.47;14.40;;;9.60;99.90;;;;;;5011253;28;21135;-76
2023/02/22 01:28:32;;;;;;;24.40;14.67;;;9.50;99.90;;;;;;4995615;28;21053;-76
2023/02/22 01:30:58;;;;;;;25.53;13.73;;;9.60;99.90;;;;;;4995730;28;20496;-76
2023/02/22 01:33:24;;;;;;;21.27;13.47;;;9.50;99.90;;;;;;4980118;28;20468;-75
2023/02/22 01:35:54;;;;;;;22.80;13.93;;;9.50;99.90;;;;;;5011488;28;20461;-76
2023/02/22 01:38:20;;;;;;;22.00;13.17;;;9.50;99.90;;;;;;5012005;28;20859;-75
2023/02/22 01:40:49;;;;;;;31.63;15.23;;;9.50;99.90;;;;;;4979343;28;20432;-76
2023/02/22 01:43:21;;;;;;;21.70;13.00;;;9.50;99.90;;;;;;5009809;28;20408;-76
2023/02/22 01:45:52;;;;;;;22.20;13.63;;;9.50;99.90;;;;;;5012422;28;20420;-75
2023/02/22 01:48:36;;;;;;;22.10;13.27;;;9.50;99.90;;;;;;4985450;28;20579;-75
2023/02/22 01:51:13;;;;;;;23.00;13.17;;;9.50;99.90;;;;;;4977209;28;20451;-75
2023/02/22 01:54:20;;;;;;;25.77;12.20;;;9.50;99.90;;;;;;4994506;28;20510;-75
2023/02/22 01:57:18;;;;;;;23.30;13.27;;;9.40;99.90;;;;;;4971869;28;20458;-75
2023/02/22 01:59:50;;;;;;;22.63;13.40;;;9.40;99.90;;;;;;4991636;28;20404;-75
2023/02/22 02:02:24;;;;;;;20.60;13.80;;;9.40;99.90;;;;;;4994418;28;20554;-75
2023/02/22 02:04:55;;;;;;;21.03;12.50;;;9.40;99.90;;;;;;4996056;28;20457;-75
2023/02/22 02:07:23;;;;;;;21.57;13.23;;;9.40;99.90;;;;;;5011530;28;20459;-75
2023/02/22 02:10:03;;;;;;;19.03;12.53;;;9.40;99.90;;;;;;5013076;28;20467;-75
2023/02/22 02:12:34;;;;;;;21.40;13.00;;;9.40;99.90;;;;;;4996002;28;20475;-76
2023/02/22 02:15:23;;;;;;;20.13;13.07;;;9.40;99.90;;;;;;4995812;28;21096;-76
2023/02/22 02:17:52;;;;;;;22.23;13.10;;;9.40;99.90;;;;;;4995678;28;20883;-76
2023/02/22 02:20:33;;;;;;;22.47;12.43;;;9.40;99.90;;;;;;4995638;28;20773;-76
2023/02/22 02:23:20;;;;;;;19.93;13.23;;;9.40;99.90;;;;;;5012554;28;20454;-76
2023/02/22 02:26:30;;;;;;;22.30;12.67;;;9.40;99.90;;;;;;5012039;28;20393;-76
2023/02/22 02:29:19;;;;;;;20.23;12.40;;;9.40;99.90;;;;;;4996021;28;20774;-76
2023/02/22 02:32:03;;;;;;;21.23;12.17;;;9.40;99.90;;;;;;5011810;28;20419;-76
2023/02/22 02:35:17;;;;;;;21.63;13.00;;;9.30;99.90;;;;;;5011577;28;20504;-76
2023/02/22 02:38:17;;;;;;;17.57;11.80;;;9.30;99.90;;;;;;4995500;28;20440;-76
2023/02/22 02:41:10;;;;;;;20.20;12.47;;;9.30;99.90;;;;;;5010714;28;20455;-76
2023/02/22 02:43:39;;;;;;;18.37;11.30;;;9.30;99.90;;;;;;5012976;28;20399;-76
2023/02/22 02:46:24;;;;;;;19.10;11.77;;;9.30;99.90;;;;;;5011370;28;20439;-76
2023/02/22 02:48:57;;;;;;;16.27;11.17;;;9.30;99.90;;;;;;4963117;28;20481;-76
2023/02/22 02:51:42;;;;;;;22.63;11.77;;;9.30;99.90;;;;;;5010791;28;20441;-76
2023/02/22 02:54:10;;;;;;;17.67;11.50;;;9.30;99.90;;;;;;5012865;28;20454;-76
2023/02/22 02:56:36;;;;;;;19.27;12.57;;;9.30;99.90;;;;;;4963091;28;21164;-75
2023/02/22 02:59:05;;;;;;;20.27;12.17;;;9.30;99.90;;;;;;5010245;28;20447;-76
2023/02/22 03:01:46;;;;;;;19.87;11.93;;;9.30;99.90;;;;;;4994185;28;20413;-76
2023/02/22 03:04:30;;;;;;;19.63;12.60;;;9.30;99.90;;;;;;4995073;28;20511;-76
2023/02/22 03:07:22;;;;;;;20.97;12.10;;;9.30;99.90;;;;;;4993953;28;20467;-76
2023/02/22 03:10:22;;;;;;;18.07;11.50;;;9.20;99.90;;;;;;5011821;28;20825;-76
2023/02/22 03:12:53;;;;;;;18.00;10.70;;;9.20;99.90;;;;;;4995144;28;20428;-76
2023/02/22 03:15:43;;;;;;;19.87;11.70;;;9.20;99.90;;;;;;4995094;28;20432;-75
2023/02/22 03:18:27;;;;;;;15.77;10.73;;;9.20;99.90;;;;;;4994103;28;20493;-76
2023/02/22 03:21:33;;;;;;;16.20;11.30;;;9.20;99.90;;;;;;4979607;28;20477;-76
2023/02/22 03:24:26;;;;;;;17.03;10.90;;;9.20;99.90;;;;;;5007584;28;20982;-76
2023/02/22 03:27:24;;;;;;;18.50;10.20;;;9.20;99.90;;;;;;4994651;28;20459;-76
2023/02/22 03:30:01;;;;;;;17.63;11.40;;;9.20;99.90;;;;;;4994621;28;20466;-76
2023/02/22 03:32:37;;;;;;;16.70;10.90;;;9.20;99.90;;;;;;5010466;28;20434;-76
2023/02/22 03:35:29;;;;;;;17.80;11.80;;;9.20;99.90;;;;;;4958415;28;20471;-76
2023/02/22 03:38:04;;;;;;;17.43;11.23;;;9.20;99.90;;;;;;4979834;28;20495;-76
2023/02/22 03:40:38;;;;;;;17.10;10.60;;;9.20;99.90;;;;;;5010957;28;20404;-76
2023/02/22 03:43:15;;;;;;;13.97;9.47;;;9.20;99.90;;;;;;4993736;28;20896;-76
2023/02/22 03:45:47;;;;;;;16.07;10.23;;;9.20;99.90;;;;;;4978437;28;20408;-76
2023/02/22 03:48:28;;;;;;;15.20;10.43;;;9.20;99.90;;;;;;4994164;28;20496;-76
2023/02/22 03:50:54;;;;;;;14.27;9.30;;;9.20;99.90;;;;;;4994458;28;20884;-76
2023/02/22 03:53:22;;;;;;;15.67;11.07;;;9.20;99.90;;;;;;4978501;28;20452;-76
2023/02/22 03:55:50;;;;;;;17.57;10.30;;;9.20;99.90;;;;;;4977704;28;20459;-76
2023/02/22 03:58:22;;;;;;;16.40;10.00;;;9.20;99.90;;;;;;5010168;28;20876;-76
2023/02/22 04:00:51;;;;;;;15.10;10.00;;;9.20;99.90;;;;;;4994331;28;20413;-76
2023/02/22 04:03:22;;;;;;;18.00;11.23;;;9.20;99.90;;;;;;4977927;28;20505;-76
2023/02/22 04:05:50;;;;;;;12.63;8.90;;;9.20;99.90;;;;;;4994537;28;20432;-76
2023/02/22 04:08:19;;;;;;;16.83;10.77;;;9.20;99.90;;;;;;4994154;28;20475;-76
2023/02/22 04:10:48;;;;;;;18.57;9.90;;;9.20;99.90;;;;;;4993760;28;20447;-76
2023/02/22 04:13:16;;;;;;;13.70;9.77;;;9.20;99.90;;;;;;5012074;28;20538;-76
2023/02/22 04:15:48;;;;;;;16.70;10.03;;;9.20;99.90;;;;;;5014234;28;20491;-76
2023/02/22 04:18:14;;;;;;;15.87;10.17;;;9.20;99.90;;;;;;4994760;28;20462;-76
2023/02/22 04:20:43;;;;;;;13.30;9.50;;;9.20;99.90;;;;;;4994439;28;20847;-75
2023/02/22 04:23:15;;;;;;;13.40;9.10;;;9.20;99.90;;;;;;5009086;28;20457;-76
2023/02/22 04:25:46;;;;;;;13.30;9.10;;;9.20;99.90;;;;;;4981845;28;20463;-76
2023/02/22 04:28:15;;;;;;;13.60;10.00;;;9.20;99.90;;;;;;4981815;28;20475;-76
2023/02/22 04:30:46;;;;;;;13.63;9.50;;;9.20;99.90;;;;;;5014199;28;20441;-75
2023/02/22 04:33:19;;;;;;;14.73;9.53;;;9.10;99.90;;;;;;4997380;28;20478;-75
2023/02/22 04:35:48;;;;;;;14.33;9.30;;;9.10;99.90;;;;;;4997779;28;20420;-75
2023/02/22 04:38:14;;;;;;;13.47;9.67;;;9.20;99.90;;;;;;4981126;28;20590;-75
2023/02/22 04:40:40;;;;;;;12.60;9.30;;;9.10;99.90;;;;;;4996976;28;20452;-75
2023/02/22 04:43:07;;;;;;;12.37;8.60;;;9.10;99.90;;;;;;5013783;28;20883;-75
2023/02/22 04:45:33;;;;;;;13.03;9.37;;;9.10;99.90;;;;;;4961309;28;20444;-74
2023/02/22 04:48:02;;;;;;;13.83;9.47;;;9.10;99.90;;;;;;4978394;28;20429;-75
2023/02/22 04:50:33;;;;;;;14.03;9.00;;;9.10;99.90;;;;;;4969007;28;20542;-75
2023/02/22 04:53:02;;;;;;;14.07;9.77;;;9.10;99.90;;;;;;5001353;28;20515;-75
2023/02/22 04:55:28;;;;;;;15.00;8.43;;;9.10;99.90;;;;;;5017155;28;20400;-75
2023/02/22 04:57:55;;;;;;;13.13;9.37;;;9.10;99.90;;;;;;5015171;28;20445;-75
2023/02/22 05:00:24;;;;;;;13.27;9.23;;;9.10;99.90;;;;;;4993679;28;20397;-75
2023/02/22 05:02:54;;;;;;;18.20;10.17;;;9.10;99.90;;;;;;4993292;28;20507;-75
2023/02/22 05:05:21;;;;;;;14.80;9.93;;;9.10;99.90;;;;;;4973166;28;20816;-75
2023/02/22 05:07:49;;;;;;;16.83;10.50;;;9.10;99.90;;;;;;4993905;28;20568;-75
2023/02/22 05:10:16;;;;;;;17.13;10.93;;;9.10;99.90;;;;;;4994525;28;20827;-75
2023/02/22 05:12:42;;;;;;;16.50;10.43;;;9.10;99.90;;;;;;4997117;28;20525;-75
2023/02/22 05:15:09;;;;;;;15.80;10.00;;;9.10;99.90;;;;;;4996901;28;20555;-75
2023/02/22 05:17:35;;;;;;;18.33;11.03;;;9.10;99.90;;;;;;5014040;28;20986;-75
2023/02/22 05:20:05;;;;;;;19.93;11.10;;;9.10;99.90;;;;;;4981487;28;20480;-75
2023/02/22 05:22:35;;;;;;;20.50;11.00;;;9.10;99.90;;;;;;4980260;28;20805;-75
2023/02/22 05:25:03;;;;;;;15.60;10.60;;;9.10;99.90;;;;;;5013690;28;20969;-75
2023/02/22 05:27:29;;;;;;;16.43;10.60;;;9.10;99.90;;;;;;5014056;28;20431;-75
2023/02/22 05:29:58;;;;;;;16.00;10.77;;;9.10;99.90;;;;;;5013096;28;20432;-75
2023/02/22 05:32:24;;;;;;;15.73;11.20;;;9.10;99.90;;;;;;4995774;28;20435;-76
2023/02/22 05:34:52;;;;;;;20.27;12.03;;;9.10;99.90;;;;;;5014117;28;20448;-76
2023/02/22 05:37:18;;;;;;;19.17;12.07;;;9.10;99.90;;;;;;5012779;28;20482;-76
2023/02/22 05:39:45;;;;;;;19.50;11.77;;;9.10;99.90;;;;;;5013266;28;20467;-76
2023/02/22 05:42:11;;;;;;;19.20;12.40;;;9.10;99.90;;;;;;5013304;28;20486;-77
2023/02/22 05:44:37;;;;;;;20.17;11.67;;;9.10;99.90;;;;;;4980339;28;20760;-76
2023/02/22 05:47:03;;;;;;;23.07;12.47;;;9.00;99.90;;;;;;5013996;28;20434;-77
2023/02/22 05:49:29;;;;;;;17.30;10.77;;;9.00;99.90;;;;;;4996472;28;20519;-77
2023/02/22 05:51:58;;;;;;;19.87;12.03;;;9.10;99.90;;;;;;4996377;28;20540;-75
2023/02/22 05:54:29;;;;;;;19.43;11.93;;;9.10;99.90;;;;;;4980350;28;20916;-76
2023/02/22 05:56:55;;;;;;;17.47;11.60;;;9.00;99.90;;;;;;4979789;28;20543;-76
2023/02/22 05:59:23;;;;;;;18.77;12.00;;;9.00;99.90;;;;;;4996758;28;20424;-76
2023/02/22 06:01:49;;;;;;;18.17;11.27;;;9.00;99.90;;;;;;4991730;28;20443;-75
2023/02/22 06:04:15;;;;;;;20.33;12.80;;;9.00;99.90;;;;;;4977319;28;20441;-76
2023/02/22 06:06:44;;;;;;;19.70;11.90;;;9.00;99.90;;;;;;4993255;28;20434;-76
2023/02/22 06:09:10;;;;;;;22.93;12.40;;;9.00;99.90;;;;;;5006462;28;20222;-73
2023/02/22 06:11:38;;;;;;;20.40;12.63;;;9.00;99.90;;;;;;5015974;28;20402;-76
2023/02/22 06:14:04;;;;;;;17.73;10.43;;;9.00;99.90;;;;;;5005903;28;20475;-76
2023/02/22 06:16:30;;;;;;;18.97;11.27;;;9.00;99.90;;;;;;4996310;28;20414;-76
2023/02/22 06:18:59;;;;;;;18.27;12.03;;;9.00;99.90;;;;;;4996448;28;21044;-76
2023/02/22 06:21:30;;;;;;;21.10;12.17;;;9.00;99.90;;;;;;5012388;28;20495;-76
2023/02/22 06:23:58;;;;;;;15.50;11.43;;;9.00;99.90;;;;;;4980377;28;20423;-76
2023/02/22 06:26:26;;;;;;;20.17;11.57;;;9.00;99.90;;;;;;5012328;28;21007;-76
2023/02/22 06:28:55;;;;;;;16.60;11.33;;;9.00;99.90;;;;;;5012606;28;20428;-75
2023/02/22 06:31:20;;;;;;;18.10;12.23;;;9.00;99.90;;;;;;4996015;28;20419;-76
2023/02/22 06:33:46;;;;;;;18.87;11.33;;;9.00;99.90;;;;;;4995553;28;21056;-76
2023/02/22 06:36:12;;;;;;;18.20;12.00;;;9.00;99.90;;;;;;4995191;28;20524;-76
2023/02/22 06:38:38;;;;;;;17.07;10.73;;;9.00;99.90;;;;;;4995706;28;20969;-75
2023/02/22 06:41:04;;;;;;;20.40;12.07;;;9.00;99.90;;;;;;4995955;28;20461;-76
2023/02/22 06:43:30;;;;;;;18.03;11.47;;;9.00;99.90;;;;;;5013038;28;20431;-76
2023/02/22 06:45:56;;;;;;;18.50;11.93;;;9.00;99.90;;;;;;4995982;28;20423;-75
2023/02/22 06:48:25;;;;;;;17.30;11.17;;;9.00;99.90;;;;;;5012198;28;20952;-76
2023/02/22 06:50:56;;;;;;;18.67;11.90;;;9.00;99.90;;;;;;5013171;28;20599;-76
2023/02/22 06:53:24;;;;;;;15.93;11.07;;;9.00;99.90;;;;;;4966750;28;20476;-76
2023/02/22 06:55:55;;;;;;;15.40;10.20;;;9.00;99.90;;;;;;4993780;28;20400;-76
2023/02/22 06:58:23;;;;;;;22.63;12.23;;;9.00;99.90;;;;;;5001307;28;20443;-76
2023/02/22 07:00:52;;;;;;;16.97;10.67;;;9.00;99.90;;;;;;4999047;28;20424;-76
2023/02/22 07:03:18;;;;;;;16.13;10.80;;;9.00;99.90;;;;;;5015392;28;20399;-76
2023/02/22 07:05:47;;;;;;;20.40;12.00;;;8.90;99.90;;;;;;5015166;28;21035;-76
2023/02/22 07:08:14;;;;;;;16.63;10.50;;;8.90;99.90;;;;;;4964780;28;20517;-75
2023/02/22 07:10:40;;;;;;;15.53;10.90;;;8.90;99.90;;;;;;4995605;28;20492;-76
2023/02/22 07:13:07;;;;;;;13.10;10.07;;;8.90;99.90;;;;;;4979964;28;20467;-76
2023/02/22 07:15:36;;;;;;;17.43;11.40;;;8.90;99.90;;;;;;4963988;28;20808;-76
2023/02/22 07:18:02;;;;;;;16.77;10.87;;;8.90;99.90;;;;;;4987379;28;20451;-76
2023/02/22 07:20:30;;;;;;;17.73;10.27;;;8.90;99.90;;;;;;4995892;28;20436;-76
2023/02/22 07:22:57;;;;;;;16.77;10.83;;;8.90;99.90;;;;;;4995470;28;20447;-76
2023/02/22 07:25:23;;;;;;;15.43;10.77;;;8.90;99.90;;;;;;5011744;28;20786;-76
2023/02/22 07:27:52;;;;;;;15.60;9.00;;;8.90;99.90;;;;;;5011473;28;20455;-76
2023/02/22 07:30:26;;;;;;;14.37;10.23;;;8.90;99.90;;;;;;4995494;28;20452;-76
2023/02/22 07:32:54;;;;;;;14.03;10.10;;;8.90;99.90;;;;;;4979140;28;20474;-76
2023/02/22 07:35:31;;;;;;;15.43;10.60;;;8.90;99.90;;;;;;5005181;22;20464;31
2023/02/22 07:38:00;;;;;;;15.50;9.80;;;8.90;99.90;;;;;;4960843;28;20612;-73
2023/02/22 07:40:29;;;;;;;15.20;9.60;;;8.90;99.90;;;;;;4972636;28;20434;-72
2023/02/22 07:43:05;;;;;;;13.37;9.10;;;8.90;99.90;;;;;;4973089;28;20434;-72
2023/02/22 07:45:33;;;;;;;14.67;10.50;;;8.90;99.90;;;;;;4973438;28;20456;-72
2023/02/22 07:48:00;;;;;;;13.63;10.03;;;8.90;99.90;;;;;;4976277;28;20540;-72
2023/02/22 07:50:33;;;;;;;13.83;10.23;;;8.90;99.90;;;;;;4980235;28;20416;-72
2023/02/22 07:53:01;;;;;;;15.77;10.30;;;8.90;99.90;;;;;;4979787;28;20538;-72
2023/02/22 07:55:29;;;;;;;12.93;9.53;;;8.90;99.90;;;;;;4979345;28;20838;-72
2023/02/22 07:57:58;;;;;;;14.80;10.20;;;8.90;99.90;;;;;;4994432;28;20458;-72
2023/02/22 08:00:29;;;;;;;14.87;9.47;;;8.90;99.90;;;;;;5014305;28;20459;-72
2023/02/22 08:02:55;;;;;;;17.83;11.23;;;8.90;99.90;;;;;;4998829;28;20403;-72
2023/02/22 08:05:24;;;;;;;13.13;8.97;;;8.90;99.90;;;;;;4979152;28;21023;-72
2023/02/22 08:07:53;;;;;;;14.73;9.40;;;8.90;99.90;;;;;;4996122;28;20471;-72
2023/02/22 08:10:23;;;;;;;12.10;9.40;;;8.90;99.90;;;;;;4997831;28;20471;-72
2023/02/22 08:12:51;;;;;;;15.60;10.10;;;8.90;99.90;;;;;;5014752;28;20408;-72
2023/02/22 08:15:23;;;;;;;13.83;9.73;;;8.90;99.90;;;;;;5016027;28;20813;-72
2023/02/22 08:17:52;;;;;;;14.20;8.90;;;8.90;99.90;;;;;;5004365;28;20534;-72
2023/02/22 08:20:22;;;;;;;14.93;9.30;;;8.90;99.90;;;;;;4995099;28;20475;-73
2023/02/22 08:22:49;;;;;;;12.27;9.00;;;8.90;99.90;;;;;;4994820;28;20484;-72
2023/02/22 08:25:20;;;;;;;12.80;8.57;;;8.90;99.90;;;;;;4979393;28;20413;-72
2023/02/22 08:27:49;;;;;;;14.00;8.83;;;8.80;99.90;;;;;;5011031;28;20441;-72
2023/02/22 08:30:24;;;;;;;12.83;9.63;;;8.90;99.90;;;;;;5011199;28;20906;-72
2023/02/22 08:32:50;;;;;;;12.30;8.93;;;8.90;99.90;;;;;;5000198;28;20541;-72
2023/02/22 08:35:21;;;;;;;13.37;8.87;;;8.90;99.90;;;;;;5014234;28;20436;-71
2023/02/22 08:37:57;;;;;;;12.53;9.10;;;8.90;99.90;;;;;;4997711;28;21011;-72
2023/02/22 08:40:28;;;;;;;12.67;9.20;;;8.90;99.90;;;;;;4993893;28;20428;-72
2023/02/22 08:42:57;;;;;;;15.00;9.90;;;8.90;99.90;;;;;;5013158;28;20450;-72
2023/02/22 08:45:23;;;;;;;11.67;8.77;;;8.90;99.90;;;;;;5014664;28;20439;-72
2023/02/22 08:47:54;;;;;;;14.27;9.93;;;8.90;99.90;;;;;;5002446;28;20451;-72
2023/02/22 08:50:27;;;;;;;14.97;9.23;;;8.90;99.90;;;;;;5009956;28;20449;-72
2023/02/22 08:52:58;;;;;;;14.60;10.43;;;8.90;99.90;;;;;;4994935;28;20401;-70
2023/02/22 08:55:31;;;;;;;13.80;9.23;;;8.90;99.90;;;;;;5009957;28;20990;-72
2023/02/22 08:58:02;;;;;;;11.97;8.60;;;8.90;99.90;;;;;;4993706;28;20500;-71
2023/02/22 09:00:31;;;;;;;11.20;8.43;;;8.90;99.90;;;;;;4993822;28;20939;-72
2023/02/22 09:03:04;;;;;;;14.00;8.97;;;8.90;99.90;;;;;;4999547;28;20948;-72
2023/02/22 09:05:31;;;;;;;10.87;8.47;;;8.90;99.90;;;;;;5005635;28;20817;-72
2023/02/22 09:07:57;;;;;;;11.30;8.43;;;9.00;99.90;;;;;;4977202;28;20440;-72
2023/02/22 09:10:27;;;;;;;11.40;8.63;;;9.00;99.90;;;;;;4977383;28;20417;-72
2023/02/22 09:12:54;;;;;;;12.20;8.80;;;9.00;99.90;;;;;;5009666;28;20441;-72
2023/02/22 09:15:21;;;;;;;14.33;9.23;;;9.00;99.90;;;;;;4976397;28;20472;-72
2023/02/22 09:17:49;;;;;;;12.80;9.13;;;9.00;99.90;;;;;;4977065;28;20958;-72
2023/02/22 09:20:21;;;;;;;13.07;8.70;;;9.00;99.90;;;;;;5003140;28;20455;-72
2023/02/22 09:22:48;;;;;;;11.37;8.73;;;9.00;99.90;;;;;;4993103;28;20497;-72
2023/02/22 09:25:15;;;;;;;12.67;8.37;;;9.00;99.90;;;;;;4998557;28;20448;-72
2023/02/22 09:27:42;;;;;;;12.77;8.50;;;9.00;99.90;;;;;;5013572;28;20440;-72
2023/02/22 09:30:15;;;;;;;14.53;8.90;;;9.00;99.90;;;;;;5013831;28;21087;-72
2023/02/22 09:32:41;;;;;;;17.13;9.47;;;9.00;99.90;;;;;;5012904;28;20453;-72
2023/02/22 09:35:07;;;;;;;12.73;9.30;;;9.00;99.90;;;;;;4995988;28;20483;-72
2023/02/22 09:37:34;;;;;;;12.73;9.33;;;9.10;99.90;;;;;;5012507;28;20471;-72
2023/02/22 09:40:00;;;;;;;13.70;9.10;;;9.10;99.90;;;;;;5012802;28;20419;-72
2023/02/22 09:42:44;;;;;;;13.63;9.80;;;9.10;99.90;;;;;;5003986;28;20491;-72
2023/02/22 09:45:21;;;;;;;13.23;9.00;;;9.10;99.90;;;;;;4994350;28;20405;-72
2023/02/22 09:47:58;;;;;;;13.40;9.03;;;9.10;99.90;;;;;;4993085;28;20499;-72
2023/02/22 09:50:36;;;;;;;13.80;8.40;;;9.10;99.90;;;;;;4994325;28;20443;-72
2023/02/22 09:53:28;;;;;;;17.80;9.60;;;9.10;99.90;;;;;;5007648;28;20441;-72
2023/02/22 09:56:09;;;;;;;17.77;10.23;;;9.20;99.90;;;;;;5002632;28;20430;-72
2023/02/22 09:58:44;;;;;;;12.10;9.10;;;9.20;99.90;;;;;;4993066;28;20818;-72
2023/02/22 10:01:32;;;;;;;14.23;9.07;;;9.20;99.90;;;;;;5012149;28;20412;-72
2023/02/22 10:04:10;;;;;;;14.37;9.83;;;9.20;99.90;;;;;;4996832;28;20459;-72
2023/02/22 10:06:38;;;;;;;14.57;9.20;;;9.20;99.90;;;;;;5012183;28;20441;-72
2023/02/22 10:09:07;;;;;;;11.30;9.20;;;9.20;99.90;;;;;;5013910;28;20415;-71
2023/02/22 10:11:49;;;;;;;15.67;10.00;;;9.20;99.90;;;;;;4977951;28;21519;-72
2023/02/22 10:14:21;;;;;;;15.93;9.83;;;9.30;99.90;;;;;;4994039;28;20460;-72
2023/02/22 10:17:01;;;;;;;14.13;9.53;;;9.30;99.90;;;;;;4992818;28;20987;-72
2023/02/22 10:19:56;;;;;;;14.23;9.87;;;9.30;99.90;;;;;;4976509;28;20438;-72
2023/02/22 10:22:37;;;;;;;12.10;9.37;;;9.30;99.90;;;;;;4974277;28;20458;-72
2023/02/22 10:25:16;;;;;;;16.80;10.50;;;9.30;99.90;;;;;;4994755;28;20487;-72
2023/02/22 10:27:54;;;;;;;11.67;9.30;;;9.40;99.90;;;;;;5012606;28;20944;-72
2023/02/22 10:30:35;;;;;;;15.83;10.10;;;9.40;99.90;;;;;;4995719;28;20518;-72
2023/02/22 10:33:14;;;;;;;12.10;8.87;;;9.40;99.90;;;;;;4996161;28;20460;-72
2023/02/22 10:35:54;;;;;;;14.93;9.93;;;9.40;99.90;;;;;;5000430;28;20809;-72
2023/02/22 10:38:33;;;;;;;14.57;10.57;;;9.40;99.90;;;;;;4992744;28;20536;-72
2023/02/22 10:41:08;;;;;;;11.80;10.30;;;9.50;99.90;;;;;;5006530;28;20435;-72
2023/02/22 10:43:39;;;;;;;15.10;10.40;;;9.50;99.90;;;;;;5013415;28;20401;-72
2023/02/22 10:46:13;;;;;;;13.77;9.17;;;9.50;99.90;;;;;;5011819;28;21000;-72
2023/02/22 10:48:46;;;;;;;13.30;10.03;;;9.60;99.90;;;;;;5012101;28;21037;-72
2023/02/22 10:51:15;;;;;;;11.87;9.10;;;9.60;99.90;;;;;;5017046;28;20413;-72
2023/02/22 10:53:46;;;;;;;14.93;10.60;;;9.60;99.90;;;;;;4992248;28;20480;-72
2023/02/22 10:56:22;;;;;;;13.93;10.20;;;9.60;99.90;;;;;;4993427;28;20444;-72
2023/02/22 10:58:56;;;;;;;11.63;8.90;;;9.60;99.90;;;;;;5012052;28;20785;-72
2023/02/22 11:01:31;;;;;;;13.27;8.80;;;9.70;99.90;;;;;;5013003;28;20420;-72
2023/02/22 11:04:03;;;;;;;12.67;8.93;;;9.70;99.90;;;;;;4979433;28;20419;-72
2023/02/22 11:06:31;;;;;;;14.50;9.27;;;9.70;99.90;;;;;;5006199;28;20445;-72
2023/02/22 11:09:12;;;;;;;15.97;9.47;;;9.70;99.90;;;;;;4992770;28;20453;-70
2023/02/22 11:11:46;;;;;;;13.00;9.37;;;9.70;99.90;;;;;;5009061;28;20479;-71
2023/02/22 11:14:38;;;;;;;14.40;9.10;;;9.80;99.90;;;;;;4976429;28;20831;-72
2023/02/22 11:17:09;;;;;;;14.27;8.80;;;9.80;99.90;;;;;;4992031;28;20938;-71
2023/02/22 11:19:38;;;;;;;15.57;9.40;;;9.80;99.90;;;;;;4991660;28;20433;-71
2023/02/22 11:22:13;;;;;;;16.03;9.23;;;9.80;99.90;;;;;;4991206;28;21035;-71
2023/02/22 11:24:49;;;;;;;10.80;8.03;;;9.90;99.90;;;;;;4991629;28;20424;-71
2023/02/22 11:27:30;;;;;;;11.67;8.73;;;9.90;99.90;;;;;;4991827;28;20443;-71
2023/02/22 11:30:21;;;;;;;12.70;8.53;;;9.90;99.90;;;;;;4991953;28;20409;-72
2023/02/22 11:33:22;;;;;;;12.10;8.93;;;9.90;99.90;;;;;;4992252;28;20441;-72
2023/02/22 11:35:57;;;;;;;14.87;8.23;;;9.90;99.90;;;;;;4990584;28;20472;-72
2023/02/22 11:38:27;;;;;;;11.50;8.43;;;10.00;99.90;;;;;;4975816;28;20441;-72
2023/02/22 11:41:21;;;;;;;15.40;9.87;;;10.00;99.90;;;;;;4993286;28;20532;-77
2023/02/22 11:43:50;;;;;;;11.20;8.10;;;10.00;99.90;;;;;;4991190;28;20931;-74
2023/02/22 11:46:18;;;;;;;11.70;7.77;;;10.00;99.90;;;;;;4982177;28;20938;-74
2023/02/22 11:49:03;;;;;;;13.00;8.40;;;10.00;99.90;;;;;;4992158;28;20644;-74
2023/02/22 11:51:45;;;;;;;11.30;8.03;;;10.10;99.90;;;;;;4993097;28;20390;-74
2023/02/22 11:54:30;;;;;;;11.93;7.40;;;10.10;99.90;;;;;;5007949;28;20512;-74
2023/02/22 11:57:01;;;;;;;10.43;7.63;;;10.10;99.90;;;;;;4975826;28;20974;-74
2023/02/22 11:59:40;;;;;;;10.90;7.40;;;10.10;99.90;;;;;;4992403;28;20456;-74
2023/02/22 12:02:26;;;;;;;13.53;8.53;;;10.10;99.90;;;;;;4993552;28;20401;-73
2023/02/22 12:05:01;;;;;;;11.20;7.50;;;10.20;99.90;;;;;;5011247;28;20412;-74
2023/02/22 12:08:04;;;;;;;9.37;7.07;;;10.20;99.90;;;;;;5008877;28;20437;-74
2023/02/22 12:11:11;;;;;;;8.20;6.20;;;10.20;99.90;;;;;;4971631;28;20421;-74
2023/02/22 12:13:58;;;;;;;10.50;7.00;;;10.20;99.90;;;;;;4971388;28;20477;-74
2023/02/22 12:16:36;;;;;;;11.10;7.87;;;10.30;99.90;;;;;;4990033;28;20465;-74
2023/02/22 12:19:20;;;;;;;10.80;7.13;;;10.30;99.90;;;;;;4991895;28;20440;-74
2023/02/22 12:22:08;;;;;;;11.40;7.10;;;10.30;99.90;;;;;;4973886;28;20406;-74
2023/02/22 12:24:45;;;;;;;12.00;8.20;;;10.30;99.90;;;;;;4989761;28;20803;-74
2023/02/22 12:27:27;;;;;;;10.60;7.60;;;10.30;99.90;;;;;;4992008;28;20492;-74
2023/02/22 12:30:03;;;;;;;12.40;6.97;;;10.40;99.90;;;;;;4992059;28;20425;-74
2023/02/22 12:32:49;;;;;;;10.40;6.97;;;10.40;99.90;;;;;;4991928;28;20408;-74
2023/02/22 12:35:19;;;;;;;9.33;6.20;;;10.40;99.90;;;;;;4994820;28;20460;-74
2023/02/22 12:38:13;;;;;;;10.30;8.10;;;10.40;99.90;;;;;;4995593;28;21055;-74
2023/02/22 12:40:52;;;;;;;9.17;6.63;;;10.50;99.90;;;;;;4994989;28;20465;-74
2023/02/22 12:43:40;;;;;;;12.77;7.70;;;10.50;99.90;;;;;;5011595;28;20440;-74
2023/02/22 12:46:14;;;;;;;11.73;7.73;;;10.50;99.90;;;;;;5011324;28;20439;-74
2023/02/22 12:48:50;;;;;;;8.40;7.00;;;10.50;99.90;;;;;;5010899;28;20467;-74
2023/02/22 12:51:22;;;;;;;11.20;7.30;;;10.50;99.90;;;;;;4987258;28;20437;-74
2023/02/22 12:54:14;;;;;;;9.87;7.30;;;10.50;99.90;;;;;;4979581;28;20519;-74
2023/02/22 12:56:54;;;;;;;9.40;6.30;;;10.60;99.90;;;;;;4995267;28;20551;-74
2023/02/22 12:59:45;;;;;;;9.97;7.17;;;10.60;99.90;;;;;;4996197;28;20887;-74
2023/02/22 13:02:20;;;;;;;11.97;8.27;;;10.60;99.90;;;;;;4995134;28;20446;-74
2023/02/22 13:04:50;;;;;;;9.83;7.27;;;10.60;99.90;;;;;;4995230;28;20424;-74
2023/02/22 13:07:29;;;;;;;10.80;7.97;;;10.60;99.90;;;;;;5011232;28;20433;-74
2023/02/22 13:10:10;;;;;;;14.07;7.10;;;10.70;99.90;;;;;;5015756;28;20421;-74
2023/02/22 13:13:03;;;;;;;12.60;7.63;;;10.70;99.90;;;;;;4998484;28;20438;-74